Time;durP1;ratioP1;P1;durP2;ratioP2;P2;SDS_P1;SDS_P2;PMS_P1;PMS_P2;Temp;Humidity;BMP_temperature;BMP_pressure;BME280_temperature;BME280_humidity;BME280_pressure;Samples;Min_cycle;Max_cycle;Signal;HPM_P1;HPM_P2
2023/03/22 00:00:28;;;;;;;;;2.00;1.00;;;;;22.25;40.07;100908.69;5057762;28;46031;-72
2023/03/22 00:02:54;;;;;;;;;1.00;1.00;;;;;22.16;39.44;100886.75;5057810;28;45375;-72
2023/03/22 00:05:20;;;;;;;;;1.67;1.67;;;;;22.25;40.04;100899.94;5058066;28;45499;-72
2023/03/22 00:07:48;;;;;;;;;2.00;1.00;;;;;22.23;40.06;100901.91;5058027;28;45210;-72
2023/03/22 00:10:14;;;;;;;;;1.00;1.00;;;;;22.23;39.62;100896.63;5057727;28;47067;-72
2023/03/22 00:12:39;;;;;;;;;2.00;2.00;;;;;22.22;40.13;100902.94;5057176;28;45409;-72
2023/03/22 00:15:06;;;;;;;;;1.00;1.00;;;;;22.21;39.62;100907.41;5039813;28;45415;-72
2023/03/22 00:17:31;;;;;;;;;2.33;1.00;;;;;22.20;40.06;100911.06;5057686;28;45373;-72
2023/03/22 00:19:57;;;;;;;;;1.00;1.00;;;;;21.87;40.13;100853.88;5057455;28;47236;-72
2023/03/22 00:22:23;;;;;;;;;1.00;1.00;;;;;22.20;40.13;100923.50;5057653;28;45377;-72
2023/03/22 00:24:48;;;;;;;;;1.00;1.00;;;;;22.18;39.61;100918.38;5057531;28;45388;-71
2023/03/22 00:27:13;;;;;;;;;1.33;1.00;;;;;22.17;39.73;100909.59;5057140;28;45506;-72
2023/03/22 00:29:39;;;;;;;;;1.00;1.00;;;;;22.18;40.13;100907.75;5057445;28;45395;-72
2023/03/22 00:32:04;;;;;;;;;2.00;2.00;;;;;22.17;39.66;100901.63;5057193;28;45436;-72
2023/03/22 00:34:31;;;;;;;;;2.00;0.00;;;;;22.14;39.91;100904.66;5057637;28;45383;-72
2023/03/22 00:36:57;;;;;;;;;3.00;1.33;;;;;22.07;39.91;100880.69;5057095;28;45431;-71
2023/03/22 00:39:22;;;;;;;;;2.00;2.00;;;;;22.15;39.55;100895.69;5057164;28;46871;-72
2023/03/22 00:41:47;;;;;;;;;0.33;0.33;;;;;22.15;39.69;100886.91;5056967;28;45440;-72
2023/03/22 00:44:13;;;;;;;;;1.33;1.33;;;;;22.13;39.94;100889.75;5057386;28;45346;-72
2023/03/22 00:46:38;;;;;;;;;2.00;0.00;;;;;22.14;39.68;100888.78;5057207;28;45444;-72
2023/03/22 00:49:04;;;;;;;;;1.33;1.00;;;;;22.13;39.62;100889.75;5057059;28;45345;-72
2023/03/22 00:51:29;;;;;;;;;2.67;1.00;;;;;22.14;40.22;100877.34;5056766;28;45393;-72
2023/03/22 00:53:55;;;;;;;;;2.00;1.00;;;;;22.15;40.14;100877.16;5056978;28;45320;-72
2023/03/22 00:56:21;;;;;;;;;0.67;0.67;;;;;22.15;40.31;100881.63;5057045;28;45585;-72
2023/03/22 00:58:47;;;;;;;;;1.00;1.00;;;;;22.14;39.94;100883.47;5057083;28;45494;-72
2023/03/22 01:01:13;;;;;;;;;2.00;1.00;;;;;22.15;39.64;100876.31;5056905;28;45381;-72
2023/03/22 01:03:39;;;;;;;;;1.00;1.00;;;;;22.10;40.00;100860.97;5057003;28;45174;-72
2023/03/22 01:06:05;;;;;;;;;3.00;1.00;;;;;22.18;40.26;100870.66;5056875;28;45299;-72
2023/03/22 01:08:31;;;;;;;;;1.00;1.00;;;;;22.14;39.79;100856.97;5056425;28;45336;-71
2023/03/22 01:10:57;;;;;;;;;1.00;1.00;;;;;22.18;40.03;100868.84;5056798;28;45265;-72
2023/03/22 01:13:22;;;;;;;;;1.00;1.00;;;;;22.20;39.58;100854.59;5056976;28;45443;-72
2023/03/22 01:15:51;;;;;;;;;0.67;0.67;;;;;22.19;39.57;100851.13;5056182;28;45278;-72
2023/03/22 01:18:17;;;;;;;;;1.67;1.67;;;;;22.17;39.66;100851.28;5056764;28;46183;-71
2023/03/22 01:20:42;;;;;;;;;2.00;2.00;;;;;22.13;39.69;100830.63;5056424;28;45432;-72
2023/03/22 01:23:07;;;;;;;;;0.67;0.00;;;;;22.20;40.05;100842.16;5056423;28;45317;-72
2023/03/22 01:25:33;;;;;;;;;2.00;0.33;;;;;22.20;40.01;100831.56;5055741;28;45413;-71
2023/03/22 01:28:01;;;;;;;;;2.00;1.00;;;;;22.17;40.18;100832.75;5056518;28;45297;-72
2023/03/22 01:30:26;;;;;;;;;0.00;0.00;;;;;22.18;40.20;100834.41;5056440;28;45377;-72
2023/03/22 01:32:52;;;;;;;;;1.00;0.00;;;;;22.17;39.65;100827.44;5056414;28;45405;-71
2023/03/22 01:35:17;;;;;;;;;5.00;1.00;;;;;22.17;39.73;100818.69;5056573;28;45431;-71
2023/03/22 01:37:42;;;;;;;;;1.00;1.00;;;;;22.16;39.74;100819.69;5055784;28;46154;-72
2023/03/22 01:40:10;;;;;;;;;2.33;1.33;;;;;22.16;40.06;100817.03;5038291;28;45486;-72
2023/03/22 01:42:36;;;;;;;;;1.00;1.00;;;;;22.17;40.28;100816.03;5056426;28;45427;-72
2023/03/22 01:45:13;;;;;;;;;3.00;1.67;;;;;22.16;39.76;100822.34;5056296;28;45428;-72
2023/03/22 01:47:43;;;;;;;;;0.67;0.67;;;;;22.14;40.28;100817.22;5055550;28;45785;-72
2023/03/22 01:50:09;;;;;;;;;2.00;1.00;;;;;22.02;39.74;100786.84;5056045;28;45392;-71
2023/03/22 01:52:36;;;;;;;;;2.00;2.00;;;;;22.11;40.03;100803.50;5055613;28;45431;-72
2023/03/22 01:55:05;;;;;;;;;3.00;2.00;;;;;22.11;39.62;100800.84;5056364;28;45610;-71
2023/03/22 01:57:32;;;;;;;;;1.00;1.00;;;;;22.11;39.58;100791.09;5055717;28;45499;-71
2023/03/22 01:59:59;;;;;;;;;0.00;0.00;;;;;22.06;40.25;100777.56;5056082;28;45375;-71
2023/03/22 02:02:29;;;;;;;;;1.00;1.00;;;;;22.13;40.15;100809.44;5055957;28;45368;-72
2023/03/22 02:04:56;;;;;;;;;1.67;1.00;;;;;22.12;40.22;100795.38;5056192;28;45486;-71
2023/03/22 02:07:26;;;;;;;;;2.00;2.00;;;;;22.09;40.29;100795.75;5055573;28;46181;-71
2023/03/22 02:09:52;;;;;;;;;0.33;0.00;;;;;22.05;40.08;100781.19;5055468;28;45340;-72
2023/03/22 02:12:59;;;;;;;;;1.00;1.00;;;;;22.13;39.80;100796.19;5055831;28;45499;-72
2023/03/22 02:15:49;;;;;;;;;1.00;1.00;;;;;22.11;39.84;100793.72;5055839;28;45377;-72
2023/03/22 02:18:35;;;;;;;;;1.00;0.33;;;;;22.11;40.18;100793.72;5055459;28;46291;-71
2023/03/22 02:21:20;;;;;;;;;1.00;1.00;;;;;22.11;40.19;100783.13;5055368;28;45468;-71
2023/03/22 02:24:22;;;;;;;;;2.00;2.00;;;;;22.12;40.24;100770.72;5055992;28;45364;-71
2023/03/22 02:27:14;;;;;;;;;2.67;1.00;;;;;22.12;40.11;100773.38;5055676;28;45483;-72
2023/03/22 02:29:44;;;;;;;;;0.67;0.67;;;;;22.12;40.20;100773.38;5055605;28;47466;-71
2023/03/22 02:32:18;;;;;;;;;1.00;0.00;;;;;22.14;39.63;100768.69;5055137;28;45478;-72
2023/03/22 02:35:02;;;;;;;;;1.00;0.00;;;;;22.13;40.08;100754.63;5055673;28;45379;-72
2023/03/22 02:37:59;;;;;;;;;2.00;0.00;;;;;22.13;39.75;100757.28;5055013;28;45238;-72
2023/03/22 02:40:56;;;;;;;;;1.00;1.00;;;;;22.15;40.15;100739.34;4953986;28;46427;-72
2023/03/22 02:43:33;;;;;;;;;2.00;0.67;;;;;22.15;40.09;100749.13;4940765;28;45456;-72
2023/03/22 02:46:04;;;;;;;;;1.33;0.00;;;;;22.15;39.75;100736.72;4954333;28;45614;-71
2023/03/22 02:48:55;;;;;;;;;2.33;2.33;;;;;22.16;39.99;100745.50;4954104;28;45566;-72
2023/03/22 02:51:28;;;;;;;;;1.67;1.00;;;;;22.15;40.14;100741.19;4952958;28;47344;-72
2023/03/22 02:54:12;;;;;;;;;2.33;1.00;;;;;22.14;39.86;100744.84;4928148;28;45500;-72
2023/03/22 02:57:16;;;;;;;;;3.67;2.00;;;;;22.14;40.01;100745.69;4953168;28;45384;-71
2023/03/22 02:59:43;;;;;;;;;0.00;0.00;;;;;22.12;39.42;100723.81;4955036;28;45453;-72
2023/03/22 03:02:17;;;;;;;;;1.00;0.00;;;;;22.13;40.08;100722.00;4957179;28;45394;-71
2023/03/22 03:04:46;;;;;;;;;2.00;1.00;;;;;22.11;40.03;100722.19;4956823;28;45455;-71
2023/03/22 03:07:17;;;;;;;;;1.00;1.00;;;;;22.10;39.77;100715.25;4957672;28;45460;-72
2023/03/22 03:09:43;;;;;;;;;1.33;1.00;;;;;22.03;40.00;100704.56;4957668;28;45394;-72
2023/03/22 03:12:17;;;;;;;;;0.00;0.00;;;;;22.10;39.65;100704.63;4957153;28;46579;-72
2023/03/22 03:14:42;;;;;;;;;0.33;0.33;;;;;22.10;39.89;100696.69;4957334;28;45919;-71
2023/03/22 03:17:44;;;;;;;;;0.33;0.33;;;;;22.11;40.03;100701.00;4991906;28;45405;-71
2023/03/22 03:20:29;;;;;;;;;0.00;0.00;;;;;22.10;39.71;100694.03;5058427;28;45365;-72
2023/03/22 03:23:06;;;;;;;;;1.00;1.00;;;;;22.09;40.24;100697.72;5058427;28;45356;-72
2023/03/22 03:25:48;;;;;;;;;0.67;0.67;;;;;22.05;39.72;100696.44;5057617;28;45339;-71
2023/03/22 03:28:36;;;;;;;;;0.67;0.67;;;;;22.09;39.87;100697.72;5058663;28;45393;-71
2023/03/22 03:31:08;;;;;;;;;2.00;0.00;;;;;22.07;40.20;100700.53;5058370;28;45343;-72
2023/03/22 03:33:38;;;;;;;;;0.00;0.00;;;;;22.07;40.05;100703.19;5057227;28;45317;-71
2023/03/22 03:36:10;;;;;;;;;1.67;1.00;;;;;22.09;39.60;100708.31;5058256;28;45420;-71
2023/03/22 03:38:41;;;;;;;;;1.00;1.00;;;;;22.07;40.06;100700.53;5058416;28;45427;-72
2023/03/22 03:41:12;;;;;;;;;1.67;0.33;;;;;22.07;40.07;100689.09;5058419;28;45462;-71
2023/03/22 03:43:38;;;;;;;;;1.00;1.00;;;;;22.07;40.19;100694.41;5058206;28;47289;-71
2023/03/22 03:46:05;;;;;;;;;0.00;0.00;;;;;22.06;40.04;100692.78;5058210;28;45439;-72
2023/03/22 03:48:34;;;;;;;;;1.00;0.00;;;;;22.03;39.73;100687.84;5057949;28;45424;-72
2023/03/22 03:51:01;;;;;;;;;0.33;0.33;;;;;22.09;39.75;100691.59;5058079;28;45492;-72
2023/03/22 03:53:27;;;;;;;;;1.00;1.00;;;;;22.09;39.63;100692.41;5057873;28;46008;-72
2023/03/22 03:55:52;;;;;;;;;0.00;0.00;;;;;22.10;39.63;100699.34;5057969;28;45538;-71
2023/03/22 03:58:18;;;;;;;;;1.67;0.67;;;;;22.12;39.97;100692.03;5058197;28;45439;-71
2023/03/22 04:00:45;;;;;;;;;0.00;0.00;;;;;22.13;40.06;100687.56;5058278;28;45245;-71
2023/03/22 04:03:11;;;;;;;;;0.00;0.00;;;;;22.14;40.22;100691.84;5057565;28;46017;-72
2023/03/22 04:05:37;;;;;;;;;0.00;0.00;;;;;22.13;40.08;100688.38;5057928;28;45427;-72
2023/03/22 04:08:02;;;;;;;;;0.00;0.00;;;;;22.14;39.55;100673.31;5058214;28;45364;-71
2023/03/22 04:10:28;;;;;;;;;1.67;1.00;;;;;22.15;39.99;100680.22;5057701;28;45319;-71
2023/03/22 04:12:53;;;;;;;;;0.00;0.00;;;;;22.15;39.75;100681.06;5057877;28;46250;-71
2023/03/22 04:15:19;;;;;;;;;1.00;1.00;;;;;22.14;39.93;100682.09;5057892;28;45399;-71
2023/03/22 04:17:45;;;;;;;;;0.00;0.00;;;;;22.13;39.96;100683.09;5057873;28;45354;-71
2023/03/22 04:20:12;;;;;;;;;0.00;0.00;;;;;22.11;39.46;100679.81;5057634;28;45619;-71
2023/03/22 04:22:39;;;;;;;;;2.00;0.00;;;;;22.12;39.63;100683.28;5057639;28;46911;-72
2023/03/22 04:25:10;;;;;;;;;4.00;1.00;;;;;22.11;39.91;100682.44;5057657;28;45372;-71
2023/03/22 04:27:37;;;;;;;;;0.00;0.00;;;;;22.10;39.49;100680.78;5057649;28;45432;-72
2023/03/22 04:30:03;;;;;;;;;1.00;0.67;;;;;22.11;40.02;100668.38;5057652;28;45417;-71
2023/03/22 04:32:29;;;;;;;;;0.00;0.00;;;;;22.07;39.92;100671.38;5056913;28;47392;-71
2023/03/22 04:34:54;;;;;;;;;0.00;0.00;;;;;22.08;40.01;100672.22;5057370;28;45273;-71
2023/03/22 04:37:23;;;;;;;;;1.00;1.00;;;;;22.07;39.46;100667.91;5057558;28;45217;-72
2023/03/22 04:39:48;;;;;;;;;0.00;0.00;;;;;22.10;39.47;100672.84;5057652;28;45467;-71
2023/03/22 04:42:14;;;;;;;;;0.00;0.00;;;;;22.09;39.59;100670.41;5056441;28;46267;-71
2023/03/22 04:44:39;;;;;;;;;2.00;1.00;;;;;22.09;40.00;100657.97;5057524;28;45367;-72
2023/03/22 04:47:05;;;;;;;;;2.00;1.00;;;;;22.08;40.03;100661.63;5057287;28;45369;-72
2023/03/22 04:49:30;;;;;;;;;0.33;0.33;;;;;22.07;39.95;100666.09;5057480;28;45479;-72
2023/03/22 04:51:56;;;;;;;;;0.67;0.67;;;;;22.03;39.81;100656.88;5057061;28;47246;-71
2023/03/22 04:54:22;;;;;;;;;0.00;0.00;;;;;22.06;40.10;100672.41;5057454;28;45417;-72
2023/03/22 04:56:48;;;;;;;;;0.00;0.00;;;;;22.07;39.94;100671.38;5039336;28;45474;-71
2023/03/22 04:59:14;;;;;;;;;1.00;1.00;;;;;22.00;40.02;100661.72;5039407;28;45322;-72
2023/03/22 05:01:41;;;;;;;;;1.00;0.00;;;;;22.05;39.98;100659.34;5056621;28;46883;-71
2023/03/22 05:04:07;;;;;;;;;1.00;1.00;;;;;22.09;39.56;100667.75;5057176;28;45409;-72
2023/03/22 05:06:32;;;;;;;;;0.67;0.67;;;;;22.07;39.95;100663.44;5057046;28;45308;-72
2023/03/22 05:08:59;;;;;;;;;0.50;0.50;;;;;22.05;39.47;100657.50;5057397;28;45162;-71
2023/03/22 05:11:26;;;;;;;;;2.33;1.00;;;;;22.04;39.98;100650.56;5056877;28;47093;-71
2023/03/22 05:13:56;;;;;;;;;0.00;0.00;;;;;22.04;40.04;100655.84;5056973;28;45405;-72
2023/03/22 05:16:23;;;;;;;;;0.00;0.00;;;;;22.05;39.98;100646.91;5056729;28;45323;-72
2023/03/22 05:18:53;;;;;;;;;0.00;0.00;;;;;22.06;39.89;100648.56;5056960;28;45363;-72
2023/03/22 05:21:35;;;;;;;;;0.00;0.00;;;;;22.07;39.83;100647.53;5056759;28;46102;-72
2023/03/22 05:24:01;;;;;;;;;0.33;0.33;;;;;22.03;39.83;100648.09;5055970;28;45360;-72
2023/03/22 05:26:26;;;;;;;;;2.33;0.33;;;;;22.09;39.77;100657.97;5056744;28;45444;-71
2023/03/22 05:28:53;;;;;;;;;0.00;0.00;;;;;22.10;39.81;100659.59;5056754;28;45381;-71
2023/03/22 05:31:23;;;;;;;;;0.00;0.00;;;;;22.12;39.50;100662.09;5038187;28;45443;-71
2023/03/22 05:33:51;;;;;;;;;0.00;0.00;;;;;22.03;39.50;100650.75;5056688;28;45356;-71
2023/03/22 05:36:19;;;;;;;;;0.33;0.33;;;;;22.03;39.82;100648.94;5056630;28;45289;-71
2023/03/22 05:38:45;;;;;;;;;0.00;0.00;;;;;22.13;39.84;100659.22;5056525;28;45442;-71
2023/03/22 05:41:11;;;;;;;;;2.00;0.00;;;;;22.13;39.38;100674.31;5038221;28;46202;-71
2023/03/22 05:43:37;;;;;;;;;0.00;0.00;;;;;22.12;39.34;100668.19;5056523;28;45281;-71
2023/03/22 05:46:07;;;;;;;;;0.00;0.00;;;;;22.11;39.81;100671.84;5056172;28;45362;-71
2023/03/22 05:48:34;;;;;;;;;0.00;0.00;;;;;22.10;39.42;100672.84;5056513;28;45396;-71
2023/03/22 05:51:02;;;;;;;;;1.00;0.00;;;;;22.10;39.56;100667.53;5056184;28;47019;-72
2023/03/22 05:53:27;;;;;;;;;0.00;0.00;;;;;22.11;39.74;100674.50;5056196;28;45179;-71
2023/03/22 05:55:56;;;;;;;;;1.00;1.00;;;;;22.10;39.95;100664.06;5056271;28;45416;-71
2023/03/22 05:58:23;;;;;;;;;1.33;1.00;;;;;22.10;39.95;100672.84;5056349;28;45299;-71
2023/03/22 06:00:50;;;;;;;;;0.67;0.67;;;;;22.09;39.60;100671.22;5056000;28;46153;-72
2023/03/22 06:03:17;;;;;;;;;1.00;1.00;;;;;22.07;39.61;100666.09;5055312;28;45357;-71
2023/03/22 06:05:42;;;;;;;;;1.00;1.00;;;;;22.09;39.86;100665.91;5055895;28;45365;-72
2023/03/22 06:08:08;;;;;;;;;0.00;0.00;;;;;22.05;40.07;100661.97;5056250;28;45464;-71
2023/03/22 06:10:33;;;;;;;;;0.00;0.00;;;;;22.07;40.05;100674.03;5055877;28;47116;-72
2023/03/22 06:12:58;;;;;;;;;0.00;0.00;;;;;22.09;39.90;100678.34;5055631;28;45317;-72
2023/03/22 06:15:24;;;;;;;;;2.00;0.00;;;;;22.06;40.23;100672.41;5056168;28;45440;-71
2023/03/22 06:17:49;;;;;;;;;0.33;0.33;;;;;22.07;40.03;100673.22;5056207;28;45349;-71
2023/03/22 06:20:15;;;;;;;;;0.00;0.00;;;;;22.06;40.08;100677.72;5055818;28;45808;-71
2023/03/22 06:22:40;;;;;;;;;0.00;0.00;;;;;22.07;39.74;100668.75;5055764;28;45345;-71
2023/03/22 06:25:06;;;;;;;;;2.33;1.00;;;;;21.98;39.85;100664.56;5056286;28;45836;-71
2023/03/22 06:27:33;;;;;;;;;0.00;0.00;;;;;21.94;39.59;100658.78;5055734;28;45449;-71
2023/03/22 06:29:58;;;;;;;;;1.00;1.00;;;;;22.06;40.02;100674.22;5055666;28;46162;-74
2023/03/22 06:32:25;;;;;;;;;0.00;0.00;;;;;21.96;39.67;100664.72;5055439;28;45286;-73
2023/03/22 06:34:51;;;;;;;;;1.00;1.00;;;;;22.05;39.58;100681.34;5055741;28;45257;-73
2023/03/22 06:37:16;;;;;;;;;1.67;0.33;;;;;22.06;40.10;100675.06;5055626;28;45490;-74
2023/03/22 06:39:42;;;;;;;;;0.67;0.67;;;;;22.05;39.66;100661.97;5037472;28;46854;-73
2023/03/22 06:42:07;;;;;;;;;1.00;0.00;;;;;22.09;40.06;100676.53;5055337;28;45298;-74
2023/03/22 06:44:33;;;;;;;;;0.00;0.00;;;;;22.11;39.81;100682.44;5037605;28;45360;-77
2023/03/22 06:46:58;;;;;;;;;0.00;0.00;;;;;22.14;39.92;100673.31;5053126;28;45502;-72
2023/03/22 06:49:25;;;;;;;;;1.67;0.00;;;;;22.14;39.77;100676.78;5048960;28;46174;-72
2023/03/22 06:51:51;;;;;;;;;3.00;0.00;;;;;22.15;40.08;100672.28;5053907;28;45535;-72
2023/03/22 06:54:16;;;;;;;;;0.00;0.00;;;;;22.06;39.74;100667.13;5054585;28;45324;-73
2023/03/22 06:56:41;;;;;;;;;1.00;0.67;;;;;22.17;39.70;100673.75;5053832;28;45456;-73
2023/03/22 06:59:07;;;;;;;;;2.67;1.00;;;;;22.17;40.03;100676.41;5055446;28;45853;-73
2023/03/22 07:01:32;;;;;;;;;0.00;0.00;;;;;22.11;39.77;100668.38;5054330;28;45400;-73
2023/03/22 07:03:57;;;;;;;;;0.33;0.00;;;;;22.19;40.28;100678.88;5054694;28;45322;-73
2023/03/22 07:06:24;;;;;;;;;0.00;0.00;;;;;22.18;40.24;100674.56;5057745;28;45425;-73
2023/03/22 07:08:49;;;;;;;;;1.00;1.00;;;;;22.12;40.13;100662.09;5054448;28;46378;-72
2023/03/22 07:11:14;;;;;;;;;0.00;0.00;;;;;22.18;39.76;100666.63;5054831;28;45287;-72
2023/03/22 07:13:40;;;;;;;;;1.67;0.00;;;;;22.17;39.73;100668.44;5055300;28;45442;-72
2023/03/22 07:16:06;;;;;;;;;1.00;0.00;;;;;22.15;39.64;100665.16;5055398;28;45341;-72
2023/03/22 07:18:31;;;;;;;;;0.00;0.00;;;;;22.17;40.07;100670.28;5055336;28;45706;-72
2023/03/22 07:20:57;;;;;;;;;0.33;0.00;;;;;22.15;40.21;100667.81;5055129;28;45329;-72
2023/03/22 07:23:22;;;;;;;;;2.00;1.00;;;;;22.15;40.18;100666.97;5055232;28;45341;-72
2023/03/22 07:25:47;;;;;;;;;0.00;0.00;;;;;22.10;39.82;100650.81;5054899;28;45390;-72
2023/03/22 07:28:14;;;;;;;;;0.00;0.00;;;;;22.03;39.77;100651.59;5054959;28;46331;-72
2023/03/22 07:30:40;;;;;;;;;0.33;0.33;;;;;22.09;40.19;100651.84;5054938;28;45517;-72
2023/03/22 07:33:07;;;;;;;;;1.00;0.00;;;;;22.08;40.11;100653.66;5055165;28;45407;-72
2023/03/22 07:35:33;;;;;;;;;0.33;0.33;;;;;22.04;40.23;100653.22;5055094;28;45599;-72
2023/03/22 07:37:59;;;;;;;;;2.00;0.67;;;;;22.11;40.31;100663.91;5054763;28;46185;-72
2023/03/22 07:40:25;;;;;;;;;1.00;1.00;;;;;22.11;39.78;100660.44;5054671;28;45430;-72
2023/03/22 07:42:50;;;;;;;;;1.33;0.00;;;;;22.10;40.19;100661.41;5036894;28;45434;-72
2023/03/22 07:45:17;;;;;;;;;1.00;0.00;;;;;22.10;40.05;100653.47;5055240;28;45290;-72
2023/03/22 07:47:42;;;;;;;;;0.00;0.00;;;;;22.04;39.86;100647.09;5058295;28;46259;-72
2023/03/22 07:50:11;;;;;;;;;0.00;0.00;;;;;22.12;40.43;100654.13;5058251;28;45397;-72
2023/03/22 07:52:36;;;;;;;;;1.00;1.00;;;;;22.11;40.31;100650.66;5058285;28;45395;-72
2023/03/22 07:55:02;;;;;;;;;0.00;0.00;;;;;22.11;39.94;100663.91;5057864;28;45401;-72
2023/03/22 07:57:27;;;;;;;;;0.67;0.00;;;;;22.11;40.20;100665.72;5058296;28;45369;-72
2023/03/22 07:59:52;;;;;;;;;0.00;0.00;;;;;22.05;39.74;100648.72;5058123;28;45425;-72
2023/03/22 08:02:18;;;;;;;;;2.00;1.00;;;;;22.01;39.90;100650.94;5054423;28;45389;-72
2023/03/22 08:04:43;;;;;;;;;0.00;0.00;;;;;22.05;40.21;100660.16;5057184;28;45456;-73
2023/03/22 08:07:08;;;;;;;;;0.00;0.00;;;;;22.09;39.74;100659.78;5056263;28;46367;-72
2023/03/22 08:09:35;;;;;;;;;0.00;0.00;;;;;22.13;40.13;100669.00;5057322;28;45253;-73
2023/03/22 08:12:00;;;;;;;;;0.00;0.00;;;;;22.13;40.30;100672.47;5057109;28;45411;-73
2023/03/22 08:14:26;;;;;;;;;1.00;1.00;;;;;22.11;40.29;100668.38;5057611;28;45775;-72
2023/03/22 08:16:51;;;;;;;;;0.00;0.00;;;;;22.15;40.10;100681.06;5057025;28;45461;-72
2023/03/22 08:19:16;;;;;;;;;0.00;0.00;;;;;22.17;39.78;100683.53;5057759;28;45371;-71
2023/03/22 08:21:42;;;;;;;;;0.00;0.00;;;;;22.18;40.36;100690.47;5057517;28;45384;-71
2023/03/22 08:24:07;;;;;;;;;0.00;0.00;;;;;22.15;39.99;100682.88;5057548;28;45241;-72
2023/03/22 08:26:33;;;;;;;;;0.00;0.00;;;;;22.07;39.91;100676.69;5057487;28;47136;-72
2023/03/22 08:28:58;;;;;;;;;0.00;0.00;;;;;22.17;40.43;100680.91;5057583;28;45414;-72
2023/03/22 08:31:24;;;;;;;;;0.00;0.00;;;;;22.17;40.51;100676.41;5057255;28;45409;-72
2023/03/22 08:33:49;;;;;;;;;0.00;0.00;;;;;22.17;40.00;100673.75;5057637;28;45461;-72
2023/03/22 08:36:17;;;;;;;;;1.67;0.00;;;;;22.16;40.46;100658.03;5057256;28;45887;-72
2023/03/22 08:38:44;;;;;;;;;0.00;0.00;;;;;22.11;40.40;100655.97;5057011;28;45344;-72
2023/03/22 08:41:14;;;;;;;;;0.00;0.00;;;;;22.14;40.29;100674.13;5057463;28;45409;-72
2023/03/22 08:43:40;;;;;;;;;0.67;0.00;;;;;22.04;40.32;100669.09;5057194;28;45421;-72
2023/03/22 08:46:05;;;;;;;;;0.00;0.00;;;;;22.14;40.59;100675.97;5056904;28;46058;-72
2023/03/22 08:48:30;;;;;;;;;0.00;0.00;;;;;22.14;40.18;100678.59;5057327;28;45391;-72
2023/03/22 08:50:57;;;;;;;;;1.00;1.00;;;;;22.11;40.46;100671.84;5057068;28;45505;-72
2023/03/22 08:53:22;;;;;;;;;0.00;0.00;;;;;22.12;40.34;100662.88;5056912;28;45343;-72
2023/03/22 08:55:47;;;;;;;;;2.00;0.00;;;;;22.13;40.57;100672.47;5057073;28;45344;-72
2023/03/22 08:58:18;;;;;;;;;1.67;0.00;;;;;22.14;40.31;100675.97;5056829;28;45419;-72
2023/03/22 09:00:45;;;;;;;;;0.00;0.00;;;;;22.14;40.06;100663.53;5057117;28;45405;-71
2023/03/22 09:03:11;;;;;;;;;0.67;0.67;;;;;22.15;40.32;100664.34;5056785;28;45394;-72
2023/03/22 09:05:36;;;;;;;;;0.00;0.00;;;;;22.11;40.42;100658.59;5056824;28;47337;-72
2023/03/22 09:08:04;;;;;;;;;0.33;0.00;;;;;22.12;40.19;100660.22;5055206;28;45436;-72
2023/03/22 09:10:30;;;;;;;;;0.67;0.00;;;;;22.13;40.47;100648.63;5056825;28;45422;-72
2023/03/22 09:12:55;;;;;;;;;0.33;0.33;;;;;22.12;40.48;100646.19;5055752;28;45426;-72
2023/03/22 09:15:21;;;;;;;;;0.33;0.00;;;;;22.10;39.94;100640.22;5056551;28;46051;-72
2023/03/22 09:17:46;;;;;;;;;0.33;0.33;;;;;22.11;40.01;100641.88;5056525;28;45336;-72
2023/03/22 09:20:12;;;;;;;;;0.00;0.00;;;;;22.12;40.53;100636.38;5055441;28;45333;-72
2023/03/22 09:22:37;;;;;;;;;0.00;0.00;;;;;22.13;40.14;100627.44;5056404;28;45546;-72
2023/03/22 09:25:03;;;;;;;;;0.00;0.00;;;;;22.13;40.08;100627.44;5056207;28;45236;-72
2023/03/22 09:27:29;;;;;;;;;0.00;0.00;;;;;22.14;40.52;100625.63;5056205;28;45390;-72
2023/03/22 09:29:54;;;;;;;;;0.67;0.00;;;;;22.15;40.48;100614.81;5056717;28;45363;-72
2023/03/22 09:32:20;;;;;;;;;0.00;0.00;;;;;22.16;40.24;100613.00;5056548;28;45418;-72
2023/03/22 09:34:46;;;;;;;;;0.00;0.00;;;;;22.16;40.46;100616.47;5056409;28;47069;-72
2023/03/22 09:37:11;;;;;;;;;0.00;0.00;;;;;22.14;39.77;100607.91;5056097;28;45386;-72
2023/03/22 09:39:38;;;;;;;;;1.33;0.00;;;;;22.20;39.82;100602.84;5056482;28;45363;-72
2023/03/22 09:42:13;;;;;;;;;1.00;0.00;;;;;22.10;39.75;100584.59;5056383;28;45273;-71
2023/03/22 09:44:41;;;;;;;;;0.00;0.00;;;;;22.21;40.42;100604.47;5056116;28;46480;-72
2023/03/22 09:47:15;;;;;;;;;0.00;0.00;;;;;22.22;39.79;100590.22;5056255;28;45443;-72
2023/03/22 09:49:46;;;;;;;;;0.00;0.00;;;;;22.21;40.35;100589.41;5055978;28;45359;-72
2023/03/22 09:52:14;;;;;;;;;0.00;0.00;;;;;22.20;39.77;100586.97;5054074;28;45566;-72
2023/03/22 09:54:42;;;;;;;;;0.00;0.00;;;;;22.11;40.12;100575.66;5055995;28;46175;-72
2023/03/22 09:57:34;;;;;;;;;0.67;0.67;;;;;22.18;39.82;100593.25;5055974;28;45254;-71
2023/03/22 10:00:10;;;;;;;;;0.33;0.00;;;;;22.17;39.67;100590.81;5056260;28;45257;-72
2023/03/22 10:02:44;;;;;;;;;1.00;1.00;;;;;22.17;39.99;100594.25;5055888;28;45361;-72
2023/03/22 10:05:29;;;;;;;;;0.67;0.67;;;;;22.17;39.94;100585.50;5055406;28;45408;-72
2023/03/22 10:07:55;;;;;;;;;0.00;0.00;;;;;22.17;39.96;100580.19;5056002;28;45359;-72
2023/03/22 10:10:23;;;;;;;;;3.00;0.00;;;;;22.18;40.41;100584.47;5055588;28;45291;-72
2023/03/22 10:13:16;;;;;;;;;0.00;0.00;;;;;22.17;39.86;100569.59;5055853;28;45428;-72
2023/03/22 10:15:58;;;;;;;;;0.00;0.00;;;;;22.16;40.09;100571.44;5045877;28;47067;-72
2023/03/22 10:18:36;;;;;;;;;0.00;0.00;;;;;22.16;39.97;100571.44;5055980;28;45460;-72
2023/03/22 10:21:07;;;;;;;;;0.00;0.00;;;;;22.12;40.25;100566.69;5055540;28;45376;-72
2023/03/22 10:23:50;;;;;;;;;0.00;0.00;;;;;22.16;39.83;100570.59;5055293;28;45404;-72
2023/03/22 10:26:37;;;;;;;;;0.00;0.00;;;;;22.16;40.39;100576.72;5055513;28;45407;-71
2023/03/22 10:29:21;;;;;;;;;1.00;0.00;;;;;22.16;40.14;100570.59;5055676;28;45369;-72
2023/03/22 10:31:47;;;;;;;;;2.67;0.00;;;;;22.17;40.47;100566.97;5055482;28;45489;-72
2023/03/22 10:34:22;;;;;;;;;0.67;0.00;;;;;22.13;39.78;100566.50;5055229;28;45534;-72
2023/03/22 10:36:49;;;;;;;;;0.67;0.67;;;;;22.14;40.11;100562.84;5055345;28;45314;-72
2023/03/22 10:39:15;;;;;;;;;0.00;0.00;;;;;22.17;40.43;100573.06;5055675;28;45413;-72
2023/03/22 10:41:42;;;;;;;;;1.00;0.00;;;;;22.14;40.38;100559.38;5055529;28;45349;-72
2023/03/22 10:44:12;;;;;;;;;0.00;0.00;;;;;22.17;40.33;100562.44;5055671;28;45393;-72
2023/03/22 10:46:40;;;;;;;;;1.00;0.00;;;;;22.17;39.79;100553.72;5055291;28;45436;-71
2023/03/22 10:49:10;;;;;;;;;0.00;0.00;;;;;22.17;40.43;100557.16;5055348;28;45300;-72
2023/03/22 10:52:02;;;;;;;;;1.33;1.00;;;;;22.18;39.89;100553.50;5055169;28;45425;-71
2023/03/22 10:54:27;;;;;;;;;0.00;0.00;;;;;22.20;39.94;100550.66;5046591;28;45319;-72
2023/03/22 10:56:53;;;;;;;;;0.00;0.00;;;;;22.21;40.39;100557.59;5055092;28;45623;-72
2023/03/22 10:59:47;;;;;;;;;0.67;0.00;;;;;22.22;40.39;100563.72;5055211;28;45435;-72
2023/03/22 11:02:27;;;;;;;;;0.00;0.00;;;;;22.24;40.37;100564.38;5054983;28;45319;-72
2023/03/22 11:05:04;;;;;;;;;0.00;0.00;;;;;22.24;40.19;100559.88;5054969;28;45377;-72
2023/03/22 11:07:43;;;;;;;;;0.00;0.00;;;;;22.23;40.44;100547.63;5054380;28;47149;-72
2023/03/22 11:10:08;;;;;;;;;0.00;0.00;;;;;22.26;39.69;100549.91;5055340;28;45376;-71
2023/03/22 11:12:42;;;;;;;;;0.33;0.00;;;;;22.25;40.16;100556.22;5055203;28;45324;-71
2023/03/22 11:15:33;;;;;;;;;0.00;0.00;;;;;22.25;39.76;100550.91;5055430;28;45277;-71
2023/03/22 11:18:11;;;;;;;;;0.00;0.00;;;;;22.26;40.39;100543.78;5054677;28;46399;-71
2023/03/22 11:20:40;;;;;;;;;0.00;0.00;;;;;22.20;39.97;100533.97;5055694;28;45313;-71
2023/03/22 11:23:10;;;;;;;;;0.00;0.00;;;;;22.25;40.46;100542.97;5058840;28;45396;-70
2023/03/22 11:25:42;;;;;;;;;1.00;0.00;;;;;22.25;40.42;100545.63;5058844;28;45337;-71
2023/03/22 11:28:21;;;;;;;;;0.00;0.00;;;;;22.26;40.15;100538.50;5058474;28;47372;-70
2023/03/22 11:30:58;;;;;;;;;0.00;0.00;;;;;22.26;40.31;100543.78;5058469;28;45400;-71
2023/03/22 11:33:24;;;;;;;;;0.00;0.00;;;;;22.24;40.34;100533.38;5058162;28;45384;-72